Time;durP1;ratioP1;P1;durP2;ratioP2;P2;SDS_P1;SDS_P2;PMS_P1;PMS_P2;Temp;Humidity;BMP_temperature;BMP_pressure;BME280_temperature;BME280_humidity;BME280_pressure;Samples;Min_cycle;Max_cycle;Signal;HPM_P1;HPM_P2
2023/07/11 00:01:37;;;;;;;6.88;2.53;;;;;;;;;;4975690;28;20549;-60
2023/07/11 00:04:03;;;;;;;8.68;2.47;;;;;;;;;;4980257;28;20209;-60
2023/07/11 00:06:28;;;;;;;6.45;2.70;;;;;;;;;;4983773;28;20209;-60
2023/07/11 00:08:54;;;;;;;6.78;2.70;;;;;;;;;;4983716;28;20228;-60
2023/07/11 00:11:19;;;;;;;10.10;3.28;;;;;;;;;;4982625;28;20221;-60
2023/07/11 00:13:44;;;;;;;7.82;2.90;;;;;;;;;;4983368;28;20291;-60
2023/07/11 00:16:10;;;;;;;7.78;2.78;;;;;;;;;;4983223;28;20280;-60
2023/07/11 00:18:35;;;;;;;8.45;2.40;;;;;;;;;;4979058;28;20827;-60
2023/07/11 00:21:02;;;;;;;8.60;2.60;;;;;;;;;;4975769;28;20892;-59
2023/07/11 00:23:27;;;;;;;8.48;2.65;;;;;;;;;;4975213;28;20221;-60
2023/07/11 00:25:53;;;;;;;6.82;2.63;;;;;;;;;;4978624;28;20573;-60
2023/07/11 00:28:18;;;;;;;6.03;2.45;;;;;;;;;;4982845;28;20217;-60
2023/07/11 00:30:43;;;;;;;9.40;2.72;;;;;;;;;;4982566;28;20208;-60
2023/07/11 00:33:09;;;;;;;7.50;2.95;;;;;;;;;;4982088;28;20287;-60
2023/07/11 00:35:35;;;;;;;5.05;2.40;;;;;;;;;;4983202;28;20296;-60
2023/07/11 00:38:00;;;;;;;6.68;2.55;;;;;;;;;;4991029;28;20280;-59
2023/07/11 00:40:26;;;;;;;5.43;2.30;;;;;;;;;;4981162;28;20217;-60
2023/07/11 00:42:52;;;;;;;8.68;2.65;;;;;;;;;;4994316;28;20227;-60
2023/07/11 00:45:36;;;;;;;8.23;2.80;;;;;;;;;;4993304;28;20646;-60
2023/07/11 00:48:02;;;;;;;5.22;2.60;;;;;;;;;;4997081;28;20298;-60
2023/07/11 00:50:27;;;;;;;6.70;2.83;;;;;;;;;;5002066;28;20679;-60
2023/07/11 00:52:52;;;;;;;7.68;2.90;;;;;;;;;;5001281;28;20208;-60
2023/07/11 00:55:18;;;;;;;5.70;2.60;;;;;;;;;;5001482;28;20695;-60
2023/07/11 00:57:43;;;;;;;6.53;2.70;;;;;;;;;;4984477;28;20209;-60
2023/07/11 01:00:08;;;;;;;5.90;2.63;;;;;;;;;;4983538;28;20311;-60
2023/07/11 01:02:34;;;;;;;7.60;2.67;;;;;;;;;;4984342;28;20228;-60
2023/07/11 01:05:00;;;;;;;6.20;2.47;;;;;;;;;;4994858;28;20208;-60
2023/07/11 01:07:26;;;;;;;6.50;2.83;;;;;;;;;;4983907;28;20266;-60
2023/07/11 01:09:52;;;;;;;8.20;2.60;;;;;;;;;;4975386;28;21183;-60
2023/07/11 01:12:17;;;;;;;6.68;2.60;;;;;;;;;;4996749;28;20695;-60
2023/07/11 01:14:44;;;;;;;7.55;2.88;;;;;;;;;;4981707;28;20201;-60
2023/07/11 01:17:19;;;;;;;7.72;2.50;;;;;;;;;;4982633;28;20580;-60
2023/07/11 01:19:44;;;;;;;9.70;3.13;;;;;;;;;;5001243;28;20232;-60
2023/07/11 01:22:09;;;;;;;8.95;3.28;;;;;;;;;;5001233;28;20802;-60
2023/07/11 01:24:35;;;;;;;7.15;2.97;;;;;;;;;;5001643;28;20224;-60
2023/07/11 01:27:00;;;;;;;9.68;2.92;;;;;;;;;;4996165;28;20220;-60
2023/07/11 01:29:25;;;;;;;6.45;2.67;;;;;;;;;;4986534;28;20637;-60
2023/07/11 01:31:51;;;;;;;8.73;2.65;;;;;;;;;;4974781;28;20229;-60
2023/07/11 01:34:16;;;;;;;6.72;2.80;;;;;;;;;;4979815;28;20228;-60
2023/07/11 01:36:42;;;;;;;7.25;2.70;;;;;;;;;;5000887;28;20252;-60
2023/07/11 01:39:07;;;;;;;7.20;2.80;;;;;;;;;;4982032;28;20287;-60
2023/07/11 01:41:32;;;;;;;6.95;2.90;;;;;;;;;;4981580;28;20243;-60
2023/07/11 01:43:57;;;;;;;5.68;2.67;;;;;;;;;;4984407;28;20228;-60
2023/07/11 01:46:23;;;;;;;8.15;2.95;;;;;;;;;;4984437;28;20689;-60
2023/07/11 01:48:48;;;;;;;8.13;3.15;;;;;;;;;;4983073;28;20223;-61
2023/07/11 01:51:14;;;;;;;8.75;2.75;;;;;;;;;;4978133;28;20209;-60
2023/07/11 01:53:39;;;;;;;6.88;2.80;;;;;;;;;;4997624;28;20421;-60
2023/07/11 01:56:04;;;;;;;6.40;2.92;;;;;;;;;;4999522;28;20204;-60
2023/07/11 01:58:30;;;;;;;6.53;2.78;;;;;;;;;;5005536;28;20212;-60
2023/07/11 02:00:56;;;;;;;8.90;3.03;;;;;;;;;;5005091;28;20216;-60
2023/07/11 02:03:22;;;;;;;7.95;2.85;;;;;;;;;;5004204;28;20862;-60
2023/07/11 02:05:47;;;;;;;5.95;2.80;;;;;;;;;;5005224;28;20247;-60
2023/07/11 02:08:12;;;;;;;6.93;2.70;;;;;;;;;;5004831;28;20212;-60
2023/07/11 02:10:38;;;;;;;5.90;3.00;;;;;;;;;;4988806;28;20247;-60
2023/07/11 02:13:03;;;;;;;6.75;3.00;;;;;;;;;;4978064;28;20637;-60
2023/07/11 02:15:28;;;;;;;7.47;2.83;;;;;;;;;;4977727;28;20521;-60
2023/07/11 02:17:53;;;;;;;8.93;3.13;;;;;;;;;;4977698;28;20205;-60
2023/07/11 02:20:19;;;;;;;5.88;2.85;;;;;;;;;;4985375;28;20312;-60
2023/07/11 02:22:44;;;;;;;8.18;2.58;;;;;;;;;;4985418;28;20229;-61
2023/07/11 02:25:09;;;;;;;8.38;2.80;;;;;;;;;;4984678;28;20240;-61
2023/07/11 02:27:34;;;;;;;8.52;2.60;;;;;;;;;;4985340;28;20710;-60
2023/07/11 02:30:00;;;;;;;7.60;3.40;;;;;;;;;;4985908;28;20221;-60
2023/07/11 02:32:25;;;;;;;7.53;2.83;;;;;;;;;;4984593;28;20585;-60
2023/07/11 02:34:50;;;;;;;6.65;2.80;;;;;;;;;;4980787;28;20208;-60
2023/07/11 02:37:16;;;;;;;7.22;3.30;;;;;;;;;;4977169;28;20226;-60
2023/07/11 02:39:41;;;;;;;8.13;2.97;;;;;;;;;;4977405;28;20373;-60
2023/07/11 02:42:07;;;;;;;9.50;3.17;;;;;;;;;;4989383;28;20239;-60
2023/07/11 02:44:32;;;;;;;8.00;3.05;;;;;;;;;;5004465;28;20724;-60
2023/07/11 02:46:57;;;;;;;7.55;3.22;;;;;;;;;;5004236;28;20221;-60
2023/07/11 02:49:22;;;;;;;9.50;3.10;;;;;;;;;;5003930;28;20209;-60
2023/07/11 02:51:48;;;;;;;9.20;2.92;;;;;;;;;;5004030;28;20212;-60
2023/07/11 02:54:14;;;;;;;8.43;3.10;;;;;;;;;;5003149;28;20213;-60
2023/07/11 02:56:39;;;;;;;7.00;3.00;;;;;;;;;;5001670;28;20750;-60
2023/07/11 02:59:04;;;;;;;7.22;3.00;;;;;;;;;;4995483;28;20216;-60
2023/07/11 03:01:31;;;;;;;9.57;3.47;;;;;;;;;;4996277;28;20267;-60
2023/07/11 03:03:56;;;;;;;7.38;2.95;;;;;;;;;;4998876;28;20267;-60
2023/07/11 03:09:25;;;;;;;7.38;2.97;;;;;;;;;;4998052;28;20235;-60
2023/07/11 03:11:50;;;;;;;8.30;3.20;;;;;;;;;;4985213;28;20209;-60
2023/07/11 03:14:16;;;;;;;9.50;3.35;;;;;;;;;;4983638;28;20217;-60
2023/07/11 03:16:42;;;;;;;9.00;3.22;;;;;;;;;;4984848;28;20213;-60
2023/07/11 03:19:07;;;;;;;8.38;3.20;;;;;;;;;;4982045;28;20209;-60
2023/07/11 03:21:33;;;;;;;7.90;3.08;;;;;;;;;;4976165;28;20260;-60
2023/07/11 03:23:58;;;;;;;8.43;3.22;;;;;;;;;;4976639;28;20217;-60
2023/07/11 03:26:23;;;;;;;13.38;4.05;;;;;;;;;;4978320;28;20289;-60
2023/07/11 03:28:49;;;;;;;7.07;3.00;;;;;;;;;;4983983;28;20220;-60
2023/07/11 03:31:16;;;;;;;10.38;3.47;;;;;;;;;;4983817;28;20719;-60
2023/07/11 03:33:41;;;;;;;8.00;3.47;;;;;;;;;;4984776;28;20260;-61
2023/07/11 03:36:07;;;;;;;10.02;3.25;;;;;;;;;;4990912;28;20225;-60
2023/07/11 03:38:32;;;;;;;8.45;3.17;;;;;;;;;;4984523;28;20236;-60
2023/07/11 03:40:57;;;;;;;7.32;3.50;;;;;;;;;;4984533;28;20223;-60
2023/07/11 03:43:22;;;;;;;8.85;3.22;;;;;;;;;;4975675;28;20233;-61
2023/07/11 03:45:48;;;;;;;8.77;3.30;;;;;;;;;;4976460;28;20215;-60
2023/07/11 03:48:14;;;;;;;6.45;3.50;;;;;;;;;;4994327;28;20204;-60
2023/07/11 03:50:40;;;;;;;7.65;3.13;;;;;;;;;;5002673;28;20295;-60
2023/07/11 03:53:05;;;;;;;10.55;3.75;;;;;;;;;;5002494;28;20303;-60
2023/07/11 03:55:30;;;;;;;6.28;3.35;;;;;;;;;;5002888;28;20255;-60
2023/07/11 03:57:56;;;;;;;8.52;3.83;;;;;;;;;;5002994;28;20680;-60
2023/07/11 04:00:21;;;;;;;10.25;3.58;;;;;;;;;;5003208;28;20772;-60
2023/07/11 04:02:46;;;;;;;7.13;3.08;;;;;;;;;;5002547;28;20258;-60
2023/07/11 04:05:12;;;;;;;10.52;3.13;;;;;;;;;;4998022;28;20339;-60
2023/07/11 04:07:37;;;;;;;12.32;3.50;;;;;;;;;;4994551;28;20761;-60
2023/07/11 04:10:03;;;;;;;13.98;4.03;;;;;;;;;;4983727;28;20218;-60
2023/07/11 04:12:28;;;;;;;10.98;3.65;;;;;;;;;;4980591;28;20228;-60
2023/07/11 04:14:53;;;;;;;9.60;3.40;;;;;;;;;;4983482;28;20217;-60
2023/07/11 04:17:18;;;;;;;9.07;3.10;;;;;;;;;;4982771;28;20213;-60
2023/07/11 04:19:44;;;;;;;6.18;3.25;;;;;;;;;;4983103;28;20236;-60
2023/07/11 04:22:09;;;;;;;11.38;4.10;;;;;;;;;;4983360;28;20225;-60
2023/07/11 04:24:34;;;;;;;10.57;3.38;;;;;;;;;;4982652;28;20217;-60
2023/07/11 04:27:00;;;;;;;7.30;3.13;;;;;;;;;;4981564;28;20213;-60
2023/07/11 04:29:25;;;;;;;6.60;3.20;;;;;;;;;;4975346;28;20443;-60
2023/07/11 04:31:50;;;;;;;11.07;3.33;;;;;;;;;;4974847;28;20260;-60
2023/07/11 04:34:15;;;;;;;9.18;3.30;;;;;;;;;;4976511;28;20220;-60
2023/07/11 04:36:41;;;;;;;8.73;3.38;;;;;;;;;;4983834;28;20209;-60
2023/07/11 04:39:06;;;;;;;7.50;3.00;;;;;;;;;;4981954;28;20573;-60
2023/07/11 04:41:31;;;;;;;10.18;3.60;;;;;;;;;;4983483;28;20255;-60
2023/07/11 04:43:57;;;;;;;8.85;3.00;;;;;;;;;;4983297;28;20220;-61
2023/07/11 04:46:22;;;;;;;9.50;3.30;;;;;;;;;;4982097;28;20217;-60
2023/07/11 04:48:47;;;;;;;7.35;2.90;;;;;;;;;;4983131;28;20300;-60
2023/07/11 04:51:13;;;;;;;8.15;3.60;;;;;;;;;;4975582;28;20276;-60
2023/07/11 04:53:39;;;;;;;9.05;3.20;;;;;;;;;;4974656;28;20380;-61
2023/07/11 04:56:05;;;;;;;9.90;3.47;;;;;;;;;;4974295;28;20319;-61
2023/07/11 04:58:31;;;;;;;7.53;3.20;;;;;;;;;;5000806;28;20219;-61
2023/07/11 05:01:03;;;;;;;8.50;3.08;;;;;;;;;;4989150;28;20212;-61
2023/07/11 05:03:28;;;;;;;8.45;3.63;;;;;;;;;;4998764;28;20220;-61
2023/07/11 05:05:53;;;;;;;8.93;3.25;;;;;;;;;;4982203;28;20220;-60
2023/07/11 05:08:19;;;;;;;11.55;3.35;;;;;;;;;;4982382;28;20258;-60
2023/07/11 05:10:51;;;;;;;12.27;3.75;;;;;;;;;;4982819;28;20225;-60
2023/07/11 05:13:16;;;;;;;8.73;3.10;;;;;;;;;;4995434;28;20289;-60
2023/07/11 05:15:42;;;;;;;10.90;3.28;;;;;;;;;;4993747;28;20649;-61
2023/07/11 05:18:07;;;;;;;12.13;3.50;;;;;;;;;;4987999;28;20213;-61
2023/07/11 05:20:32;;;;;;;10.10;4.10;;;;;;;;;;4978836;28;20420;-61
2023/07/11 05:22:57;;;;;;;9.20;3.38;;;;;;;;;;4982766;28;20604;-61
2023/07/11 05:25:23;;;;;;;8.05;3.60;;;;;;;;;;4981878;28;20677;-61
2023/07/11 05:27:48;;;;;;;11.88;3.63;;;;;;;;;;4982298;28;20217;-61
2023/07/11 05:30:13;;;;;;;9.68;3.55;;;;;;;;;;4982094;28;20225;-60
2023/07/11 05:32:39;;;;;;;10.88;3.72;;;;;;;;;;4982670;28;20265;-60
2023/07/11 05:35:04;;;;;;;7.65;3.40;;;;;;;;;;4978791;28;20249;-61
2023/07/11 05:37:29;;;;;;;8.93;3.80;;;;;;;;;;4975116;28;20209;-61
2023/07/11 05:39:55;;;;;;;7.40;3.03;;;;;;;;;;4974587;28;20236;-61
2023/07/11 05:42:20;;;;;;;9.05;3.58;;;;;;;;;;4975782;28;20229;-61
2023/07/11 05:44:45;;;;;;;6.57;3.05;;;;;;;;;;4982779;28;20251;-61
2023/07/11 05:47:10;;;;;;;9.45;3.40;;;;;;;;;;4990193;28;20570;-61
2023/07/11 05:49:36;;;;;;;10.25;3.38;;;;;;;;;;4991400;28;20205;-61
2023/07/11 05:52:01;;;;;;;8.18;2.83;;;;;;;;;;4991878;28;20244;-61
2023/07/11 05:54:26;;;;;;;7.47;2.92;;;;;;;;;;4992066;28;20201;-61
2023/07/11 05:56:52;;;;;;;8.65;3.17;;;;;;;;;;4991318;28;20579;-61
2023/07/11 05:59:18;;;;;;;7.55;3.22;;;;;;;;;;4991663;28;20563;-61
2023/07/11 06:01:43;;;;;;;8.82;3.28;;;;;;;;;;4991446;28;20278;-61
2023/07/11 06:04:10;;;;;;;10.18;2.92;;;;;;;;;;4990906;28;20213;-61
2023/07/11 06:06:41;;;;;;;7.43;3.33;;;;;;;;;;4990636;28;20693;-61
2023/07/11 06:09:06;;;;;;;6.57;2.90;;;;;;;;;;4994221;28;20692;-61
2023/07/11 06:11:31;;;;;;;7.90;2.85;;;;;;;;;;5003131;28;20278;-61
2023/07/11 06:13:56;;;;;;;7.47;2.88;;;;;;;;;;5011751;28;20424;-61
2023/07/11 06:16:22;;;;;;;6.53;2.58;;;;;;;;;;5010405;28;20668;-61
2023/07/11 06:18:47;;;;;;;6.03;3.08;;;;;;;;;;5011690;28;20696;-61
2023/07/11 06:21:13;;;;;;;6.70;2.70;;;;;;;;;;5011031;28;20688;-61
2023/07/11 06:23:38;;;;;;;6.63;2.95;;;;;;;;;;5010960;28;20591;-61
2023/07/11 06:26:03;;;;;;;7.57;2.97;;;;;;;;;;5010775;28;20224;-61
2023/07/11 06:28:29;;;;;;;6.95;2.65;;;;;;;;;;5011434;28;20209;-61
2023/07/11 06:30:55;;;;;;;6.65;2.80;;;;;;;;;;5013714;28;20339;-61
2023/07/11 06:33:22;;;;;;;10.55;3.13;;;;;;;;;;5008502;28;20678;-61
2023/07/11 06:35:49;;;;;;;8.73;2.53;;;;;;;;;;4995155;28;20233;-61
2023/07/11 06:38:14;;;;;;;6.72;2.80;;;;;;;;;;5006917;28;20300;-61
2023/07/11 06:40:39;;;;;;;7.28;2.55;;;;;;;;;;5014932;28;20609;-61
2023/07/11 06:43:05;;;;;;;7.57;2.50;;;;;;;;;;5014275;28;20731;-61
2023/07/11 06:45:30;;;;;;;5.53;2.53;;;;;;;;;;5009107;28;20213;-61
2023/07/11 06:47:55;;;;;;;9.40;2.78;;;;;;;;;;4991711;28;20288;-61
2023/07/11 06:50:21;;;;;;;8.23;2.35;;;;;;;;;;5000003;28;20220;-61
2023/07/11 06:52:46;;;;;;;7.35;2.60;;;;;;;;;;4996552;28;20220;-61
2023/07/11 06:55:12;;;;;;;6.10;2.40;;;;;;;;;;4995506;28;20707;-61
2023/07/11 06:57:37;;;;;;;7.18;2.42;;;;;;;;;;4999781;28;20212;-61
2023/07/11 07:00:03;;;;;;;7.47;2.25;;;;;;;;;;4994120;28;20283;-61
2023/07/11 07:02:29;;;;;;;7.10;2.35;;;;;;;;;;4994927;28;20711;-61
2023/07/11 07:04:55;;;;;;;7.43;2.50;;;;;;;;;;4998071;28;20810;-61
2023/07/11 07:07:20;;;;;;;8.15;2.50;;;;;;;;;;5013182;28;20224;-61
2023/07/11 07:09:46;;;;;;;7.13;2.40;;;;;;;;;;5014765;28;20258;-61
2023/07/11 07:12:11;;;;;;;9.00;2.67;;;;;;;;;;5013646;28;20236;-60
2023/07/11 07:14:37;;;;;;;7.40;2.60;;;;;;;;;;5014271;28;20208;-61
2023/07/11 07:17:03;;;;;;;7.50;2.20;;;;;;;;;;5014016;28;20615;-61
2023/07/11 07:19:28;;;;;;;7.95;2.20;;;;;;;;;;5014028;28;20209;-61
2023/07/11 07:21:53;;;;;;;7.40;2.83;;;;;;;;;;5009349;28;20233;-61
2023/07/11 07:24:19;;;;;;;6.38;2.30;;;;;;;;;;4994569;28;20662;-61
2023/07/11 07:26:44;;;;;;;6.25;2.10;;;;;;;;;;4994388;28;20210;-61
2023/07/11 07:29:09;;;;;;;8.00;2.55;;;;;;;;;;4995522;28;20244;-62
2023/07/11 07:31:35;;;;;;;7.75;2.33;;;;;;;;;;4994662;28;20276;-62
2023/07/11 07:34:00;;;;;;;7.18;2.47;;;;;;;;;;5005087;28;20217;-61
2023/07/11 07:36:25;;;;;;;6.85;2.80;;;;;;;;;;5013215;28;20217;-61
2023/07/11 07:38:50;;;;;;;9.32;2.65;;;;;;;;;;5012954;28;20212;-62
2023/07/11 07:41:16;;;;;;;7.57;2.58;;;;;;;;;;5012682;28;20675;-60
2023/07/11 07:43:43;;;;;;;6.90;2.85;;;;;;;;;;5000052;28;20299;-62
2023/07/11 07:46:09;;;;;;;7.82;2.75;;;;;;;;;;4985272;28;20224;-62
2023/07/11 07:48:35;;;;;;;7.50;2.78;;;;;;;;;;4997136;28;20257;-61
2023/07/11 07:51:02;;;;;;;8.27;2.67;;;;;;;;;;5001347;28;20692;-62
2023/07/11 07:53:27;;;;;;;8.80;2.80;;;;;;;;;;4970015;28;20743;-60
2023/07/11 07:55:53;;;;;;;10.98;2.97;;;;;;;;;;4983479;28;20217;-62
2023/07/11 07:58:18;;;;;;;7.45;2.78;;;;;;;;;;4982302;28;20209;-62
2023/07/11 08:00:43;;;;;;;9.70;3.10;;;;;;;;;;4994869;28;20213;-62
2023/07/11 08:03:09;;;;;;;4.88;2.40;;;;;;;;;;4986394;28;20287;-62
2023/07/11 08:05:36;;;;;;;7.97;2.67;;;;;;;;;;4980261;28;20610;-61
2023/07/11 08:08:01;;;;;;;5.82;2.50;;;;;;;;;;4988130;28;20255;-62
2023/07/11 08:10:27;;;;;;;5.93;2.45;;;;;;;;;;4986502;28;20208;-62
2023/07/11 08:12:52;;;;;;;7.63;2.40;;;;;;;;;;4978247;28;20684;-63
2023/07/11 08:15:17;;;;;;;11.60;2.40;;;;;;;;;;4978795;28;20259;-62
2023/07/11 08:17:45;;;;;;;9.07;2.30;;;;;;;;;;4979734;28;20683;-62
2023/07/11 08:20:11;;;;;;;7.55;2.67;;;;;;;;;;4992787;28;20635;-62
2023/07/11 08:22:37;;;;;;;7.22;2.78;;;;;;;;;;5007779;28;20307;-61
2023/07/11 08:25:02;;;;;;;9.10;2.50;;;;;;;;;;5006037;28;20242;-61
2023/07/11 08:27:27;;;;;;;6.18;2.53;;;;;;;;;;4991096;28;20228;-61
2023/07/11 08:29:53;;;;;;;7.28;2.80;;;;;;;;;;4989139;28;20237;-61
2023/07/11 08:32:18;;;;;;;7.38;2.40;;;;;;;;;;4990190;28;20247;-61
2023/07/11 08:34:43;;;;;;;6.03;2.72;;;;;;;;;;4990947;28;20690;-61
2023/07/11 08:37:09;;;;;;;5.65;2.30;;;;;;;;;;5003762;28;20212;-61
2023/07/11 08:39:34;;;;;;;6.10;2.35;;;;;;;;;;5010729;28;20248;-61
2023/07/11 08:42:01;;;;;;;4.63;2.10;;;;;;;;;;5010237;28;20223;-61
2023/07/11 08:44:35;;;;;;;7.47;2.15;;;;;;;;;;5009414;28;20684;-61
2023/07/11 08:47:09;;;;;;;10.65;3.00;;;;;;;;;;5010439;28;20215;-61
2023/07/11 08:49:43;;;;;;;8.32;2.30;;;;;;;;;;5010453;28;20223;-61
2023/07/11 08:52:09;;;;;;;6.97;2.10;;;;;;;;;;5007513;28;20220;-61
2023/07/11 08:54:36;;;;;;;13.60;2.33;;;;;;;;;;5009219;28;20262;-61
2023/07/11 08:57:01;;;;;;;6.60;2.35;;;;;;;;;;5010162;28;20263;-61
2023/07/11 08:59:33;;;;;;;7.38;2.45;;;;;;;;;;4992354;28;20699;-62
2023/07/11 09:01:58;;;;;;;5.65;1.98;;;;;;;;;;4989656;28;20217;-61
2023/07/11 09:04:23;;;;;;;5.15;2.00;;;;;;;;;;4990187;28;20700;-61
2023/07/11 09:06:52;;;;;;;6.68;2.10;;;;;;;;;;4989648;28;20236;-61
2023/07/11 09:09:18;;;;;;;7.95;2.30;;;;;;;;;;4988935;28;20692;-61
2023/07/11 09:11:49;;;;;;;6.65;2.15;;;;;;;;;;5006292;28;20232;-61
2023/07/11 09:14:14;;;;;;;5.22;2.20;;;;;;;;;;5008389;28;20217;-61
2023/07/11 09:16:40;;;;;;;7.70;2.05;;;;;;;;;;5009945;28;20212;-61
2023/07/11 09:19:05;;;;;;;8.27;2.15;;;;;;;;;;5008022;28;20699;-61
2023/07/11 09:21:37;;;;;;;4.50;1.85;;;;;;;;;;5009321;28;20674;-61
2023/07/11 09:24:13;;;;;;;7.22;2.05;;;;;;;;;;5009665;28;20594;-61
2023/07/11 09:26:43;;;;;;;6.25;1.98;;;;;;;;;;5007981;28;20216;-61
2023/07/11 09:29:09;;;;;;;5.82;2.00;;;;;;;;;;5003932;28;20209;-62
2023/07/11 09:31:39;;;;;;;9.82;1.92;;;;;;;;;;4988913;28;20235;-61
2023/07/11 09:34:05;;;;;;;9.18;2.05;;;;;;;;;;4999597;28;20227;-61
2023/07/11 09:36:32;;;;;;;12.25;2.00;;;;;;;;;;5008252;28;20219;-61
2023/07/11 09:39:03;;;;;;;9.07;1.70;;;;;;;;;;5008918;28;20208;-61
2023/07/11 09:41:43;;;;;;;6.80;1.90;;;;;;;;;;5007610;28;20251;-61
2023/07/11 09:44:09;;;;;;;7.32;1.90;;;;;;;;;;5008043;28;20228;-61
2023/07/11 09:46:34;;;;;;;8.15;2.20;;;;;;;;;;5008666;28;20215;-61
2023/07/11 09:49:00;;;;;;;7.75;1.70;;;;;;;;;;5008935;28;20215;-61
2023/07/11 09:51:30;;;;;;;9.48;1.85;;;;;;;;;;5007904;28;20235;-61
2023/07/11 09:53:56;;;;;;;7.53;1.90;;;;;;;;;;5008078;28;20303;-61
2023/07/11 09:56:22;;;;;;;8.82;1.77;;;;;;;;;;5009040;28;20303;-61
2023/07/11 09:58:48;;;;;;;6.22;1.83;;;;;;;;;;4998088;28;20731;-61
2023/07/11 10:01:16;;;;;;;6.25;1.77;;;;;;;;;;4988642;28;20244;-61
2023/07/11 10:03:42;;;;;;;8.35;2.20;;;;;;;;;;4989900;28;20225;-61
2023/07/11 10:06:08;;;;;;;6.57;2.10;;;;;;;;;;4991393;28;20739;-61
2023/07/11 10:08:35;;;;;;;7.65;1.83;;;;;;;;;;4992018;28;20489;-61
2023/07/11 10:11:02;;;;;;;6.50;2.22;;;;;;;;;;4993825;28;20209;-61
2023/07/11 10:13:27;;;;;;;5.00;1.90;;;;;;;;;;4993795;28;20293;-61
2023/07/11 10:15:53;;;;;;;7.18;2.03;;;;;;;;;;4993051;28;20233;-61
2023/07/11 10:18:20;;;;;;;9.00;1.90;;;;;;;;;;4992822;28;20217;-61
2023/07/11 10:20:46;;;;;;;6.82;1.70;;;;;;;;;;5001296;28;20223;-60
2023/07/11 10:23:11;;;;;;;6.28;2.10;;;;;;;;;;5006069;28;20230;-61
2023/07/11 10:25:37;;;;;;;7.65;2.42;;;;;;;;;;5012052;28;20209;-61
2023/07/11 10:28:04;;;;;;;6.20;2.00;;;;;;;;;;5012818;28;20672;-61
2023/07/11 10:30:31;;;;;;;6.95;1.80;;;;;;;;;;4991432;28;20201;-61
2023/07/11 10:32:57;;;;;;;9.05;2.20;;;;;;;;;;5010808;28;20257;-61
2023/07/11 10:35:23;;;;;;;7.82;2.05;;;;;;;;;;5004951;28;20299;-61
2023/07/11 10:37:55;;;;;;;6.22;1.98;;;;;;;;;;4992806;28;20363;-61
2023/07/11 10:40:20;;;;;;;6.80;2.22;;;;;;;;;;4998259;28;20314;-61
2023/07/11 10:42:49;;;;;;;6.60;2.33;;;;;;;;;;5012714;28;20313;-61
2023/07/11 10:45:17;;;;;;;7.60;2.20;;;;;;;;;;5008709;28;20216;-61
2023/07/11 10:47:46;;;;;;;7.90;2.13;;;;;;;;;;5007177;28;20221;-61
2023/07/11 10:50:16;;;;;;;4.60;2.10;;;;;;;;;;5009793;28;20212;-61
2023/07/11 10:52:41;;;;;;;5.07;1.90;;;;;;;;;;5012485;28;20200;-61
2023/07/11 10:55:15;;;;;;;7.30;1.80;;;;;;;;;;5011768;28;20233;-61
2023/07/11 10:57:42;;;;;;;6.00;2.33;;;;;;;;;;5009006;28;20256;-61
2023/07/11 11:00:16;;;;;;;6.22;2.35;;;;;;;;;;4949616;28;20217;-61
2023/07/11 11:02:48;;;;;;;7.40;1.98;;;;;;;;;;4958881;28;20676;-61
2023/07/11 11:05:28;;;;;;;5.85;2.28;;;;;;;;;;4959962;28;20221;-61
2023/07/11 11:07:56;;;;;;;6.03;2.35;;;;;;;;;;4957450;28;20293;-60
2023/07/11 11:10:27;;;;;;;5.60;2.20;;;;;;;;;;4956426;28;20213;-61
2023/07/11 11:12:56;;;;;;;6.07;2.10;;;;;;;;;;4955569;28;20221;-60
2023/07/11 11:15:27;;;;;;;5.88;2.30;;;;;;;;;;4957032;28;20221;-61
2023/07/11 11:17:56;;;;;;;9.43;2.38;;;;;;;;;;4960618;28;20353;-61
2023/07/11 11:20:25;;;;;;;8.70;2.08;;;;;;;;;;4957270;28;20213;-60
2023/07/11 11:22:54;;;;;;;5.10;2.15;;;;;;;;;;4959043;28;20233;-61
2023/07/11 11:25:22;;;;;;;6.50;1.90;;;;;;;;;;4955749;28;20460;-61
2023/07/11 11:27:52;;;;;;;7.30;2.20;;;;;;;;;;4953191;28;20213;-61
2023/07/11 11:30:26;;;;;;;7.07;2.60;;;;;;;;;;4960922;28;20224;-61
2023/07/11 11:32:55;;;;;;;6.63;2.08;;;;;;;;;;4959311;28;20225;-61
2023/07/11 11:35:20;;;;;;;6.53;2.17;;;;;;;;;;4959002;28;20233;-61
2023/07/11 11:37:52;;;;;;;9.45;2.50;;;;;;;;;;4961707;28;20297;-61
2023/07/11 11:40:19;;;;;;;7.93;2.22;;;;;;;;;;4957640;28;20594;-60
2023/07/11 11:42:44;;;;;;;4.45;1.90;;;;;;;;;;4958185;28;20221;-60
2023/07/11 11:45:14;;;;;;;7.68;2.50;;;;;;;;;;4956298;28;21120;-61
2023/07/11 11:47:40;;;;;;;5.75;2.50;;;;;;;;;;4960546;28;20557;-61
2023/07/11 11:50:05;;;;;;;7.13;2.47;;;;;;;;;;4958348;28;20874;-62
2023/07/11 11:52:32;;;;;;;7.47;2.10;;;;;;;;;;4960162;28;20220;-61
2023/07/11 11:54:57;;;;;;;8.98;2.70;;;;;;;;;;4974938;28;20316;-61
2023/07/11 11:57:26;;;;;;;9.30;2.35;;;;;;;;;;4956483;28;20288;-61
2023/07/11 11:59:51;;;;;;;8.07;2.53;;;;;;;;;;4960697;28;20214;-61
2023/07/11 12:02:18;;;;;;;7.80;2.30;;;;;;;;;;4959531;28;20234;-61
2023/07/11 12:04:57;;;;;;;8.90;2.22;;;;;;;;;;4958378;28;20292;-61
2023/07/11 12:07:24;;;;;;;8.85;2.22;;;;;;;;;;4959246;28;20217;-61
2023/07/11 12:09:51;;;;;;;7.57;2.72;;;;;;;;;;4959258;28;20213;-60
2023/07/11 12:12:16;;;;;;;5.35;2.20;;;;;;;;;;4959635;28;20625;-61
2023/07/11 12:14:43;;;;;;;6.95;2.25;;;;;;;;;;4958608;28;20503;-61
2023/07/11 12:17:27;;;;;;;6.32;2.28;;;;;;;;;;4943945;28;20409;-61
2023/07/11 12:19:59;;;;;;;6.00;2.15;;;;;;;;;;4959914;28;20218;-61
2023/07/11 12:22:26;;;;;;;6.70;2.20;;;;;;;;;;4959886;28;20714;-61
2023/07/11 12:25:03;;;;;;;3.72;2.00;;;;;;;;;;4958104;28;20217;-61
2023/07/11 12:27:28;;;;;;;8.30;2.50;;;;;;;;;;4959003;28;20220;-61
2023/07/11 12:29:53;;;;;;;9.82;2.50;;;;;;;;;;4957367;28;20210;-61
2023/07/11 12:32:28;;;;;;;6.05;2.15;;;;;;;;;;4957291;28;20237;-61
2023/07/11 12:34:54;;;;;;;6.03;2.42;;;;;;;;;;4957940;28;20231;-61
2023/07/11 12:37:20;;;;;;;9.00;2.63;;;;;;;;;;4958566;28;20321;-61
2023/07/11 12:39:46;;;;;;;7.32;2.13;;;;;;;;;;4959935;28;20706;-61
2023/07/11 12:42:17;;;;;;;4.90;2.13;;;;;;;;;;4962920;28;20246;-61
2023/07/11 12:44:43;;;;;;;5.82;2.45;;;;;;;;;;4958648;28;20614;-61
2023/07/11 12:47:11;;;;;;;8.18;2.53;;;;;;;;;;4961751;28;20225;-62
2023/07/11 12:49:37;;;;;;;6.65;2.00;;;;;;;;;;4961011;28;20704;-61
2023/07/11 12:52:04;;;;;;;6.95;2.38;;;;;;;;;;4957512;28;20220;-62
2023/07/11 12:54:29;;;;;;;4.57;2.08;;;;;;;;;;4961767;28;20218;-61
2023/07/11 12:56:54;;;;;;;9.07;2.60;;;;;;;;;;4960381;28;20205;-61
2023/07/11 12:59:21;;;;;;;4.70;2.10;;;;;;;;;;4960570;28;20264;-61
2023/07/11 13:01:47;;;;;;;6.05;2.20;;;;;;;;;;4959947;28;20222;-61
2023/07/11 13:04:14;;;;;;;5.97;2.03;;;;;;;;;;4961477;28;20217;-61
2023/07/11 13:06:39;;;;;;;8.75;1.92;;;;;;;;;;4959284;28;20699;-61
2023/07/11 13:09:08;;;;;;;5.80;2.25;;;;;;;;;;4958122;28;20221;-61
2023/07/11 13:11:34;;;;;;;6.53;2.28;;;;;;;;;;4959634;28;20206;-61
2023/07/11 13:13:59;;;;;;;8.55;2.67;;;;;;;;;;4959752;28;20210;-61
2023/07/11 13:16:27;;;;;;;7.57;2.42;;;;;;;;;;4958956;28;20232;-61
2023/07/11 13:18:52;;;;;;;6.18;2.22;;;;;;;;;;4962085;28;20213;-61
2023/07/11 13:21:17;;;;;;;9.00;2.22;;;;;;;;;;4958980;28;20206;-61
2023/07/11 13:23:43;;;;;;;9.80;2.25;;;;;;;;;;4964522;28;20230;-61
2023/07/11 13:26:09;;;;;;;5.40;2.25;;;;;;;;;;4970936;28;20268;-61
2023/07/11 13:28:36;;;;;;;5.40;2.08;;;;;;;;;;4972126;28;20209;-61
2023/07/11 13:31:02;;;;;;;8.23;2.42;;;;;;;;;;4971279;28;20217;-61
2023/07/11 13:33:30;;;;;;;5.57;2.20;;;;;;;;;;4959324;28;20237;-61
2023/07/11 13:35:56;;;;;;;10.40;3.00;;;;;;;;;;4957004;28;20221;-61
2023/07/11 13:38:22;;;;;;;6.45;2.50;;;;;;;;;;4958778;28;20210;-61
2023/07/11 13:40:47;;;;;;;6.40;2.20;;;;;;;;;;4944184;28;20272;-61
2023/07/11 13:43:19;;;;;;;6.93;2.13;;;;;;;;;;4957478;28;20233;-61
2023/07/11 13:45:44;;;;;;;7.43;2.30;;;;;;;;;;4954291;28;20213;-61
2023/07/11 13:48:21;;;;;;;6.20;2.40;;;;;;;;;;4957703;28;20265;-61
2023/07/11 13:50:46;;;;;;;7.97;2.10;;;;;;;;;;4956093;28;20232;-61
2023/07/11 13:53:13;;;;;;;5.05;2.10;;;;;;;;;;4954163;28;20214;-61
2023/07/11 13:55:39;;;;;;;6.30;2.03;;;;;;;;;;4955066;28;20269;-61
2023/07/11 13:58:05;;;;;;;6.32;2.20;;;;;;;;;;4949138;28;21122;-61
2023/07/11 14:00:30;;;;;;;7.03;2.13;;;;;;;;;;4946350;28;20220;-61
2023/07/11 14:02:56;;;;;;;6.50;2.22;;;;;;;;;;4949258;28;20238;-61
2023/07/11 14:05:22;;;;;;;6.28;2.22;;;;;;;;;;4954613;28;20226;-61
2023/07/11 14:07:48;;;;;;;7.68;2.20;;;;;;;;;;4949516;28;20627;-61
2023/07/11 14:10:15;;;;;;;6.43;2.35;;;;;;;;;;4952919;28;20689;-61
2023/07/11 14:12:40;;;;;;;6.22;2.30;;;;;;;;;;4956274;28;20210;-61
2023/07/11 14:15:12;;;;;;;6.45;2.08;;;;;;;;;;4955876;28;20237;-61
2023/07/11 14:17:37;;;;;;;5.05;2.00;;;;;;;;;;4953380;28;20268;-61
2023/07/11 14:20:03;;;;;;;5.07;2.10;;;;;;;;;;4946372;28;20222;-62
2023/07/11 14:22:28;;;;;;;6.97;2.45;;;;;;;;;;4948823;28;20354;-61
2023/07/11 14:24:54;;;;;;;7.55;2.22;;;;;;;;;;4947573;28;21363;-61
2023/07/11 14:27:19;;;;;;;8.45;2.47;;;;;;;;;;4951619;28;20260;-61
2023/07/11 14:29:44;;;;;;;7.78;2.05;;;;;;;;;;4955259;28;20214;-61
2023/07/11 14:32:11;;;;;;;7.82;2.20;;;;;;;;;;4955366;28;20241;-61
2023/07/11 14:34:36;;;;;;;5.90;2.10;;;;;;;;;;4952833;28;20217;-61
2023/07/11 14:37:01;;;;;;;7.00;2.60;;;;;;;;;;4955441;28;20229;-62
2023/07/11 14:39:27;;;;;;;7.78;2.28;;;;;;;;;;4957580;28;20218;-61
2023/07/11 14:41:52;;;;;;;7.13;2.00;;;;;;;;;;4950041;28;20210;-61